sensor_id;sensor_type;location;lat;lon;timestamp;P1;durP1;ratioP1;P2;durP2;ratioP2
16506;SDS011;8366;51.020;7.642;2023-03-04T00:01:18;35.27;;;14.80;;
16506;SDS011;8366;51.020;7.642;2023-03-04T00:03:45;30.90;;;15.33;;
16506;SDS011;8366;51.020;7.642;2023-03-04T00:06:11;31.60;;;14.50;;
16506;SDS011;8366;51.020;7.642;2023-03-04T00:08:38;31.97;;;15.20;;
16506;SDS011;8366;51.020;7.642;2023-03-04T00:11:04;29.47;;;15.30;;
16506;SDS011;8366;51.020;7.642;2023-03-04T00:13:31;31.70;;;14.87;;
16506;SDS011;8366;51.020;7.642;2023-03-04T00:15:58;33.27;;;15.40;;
16506;SDS011;8366;51.020;7.642;2023-03-04T00:18:25;28.63;;;14.00;;
16506;SDS011;8366;51.020;7.642;2023-03-04T00:20:52;33.73;;;14.87;;
16506;SDS011;8366;51.020;7.642;2023-03-04T00:23:19;31.57;;;14.27;;
16506;SDS011;8366;51.020;7.642;2023-03-04T00:25:46;33.33;;;14.47;;
16506;SDS011;8366;51.020;7.642;2023-03-04T00:28:12;29.93;;;13.83;;
16506;SDS011;8366;51.020;7.642;2023-03-04T00:30:39;34.97;;;15.10;;
16506;SDS011;8366;51.020;7.642;2023-03-04T00:33:05;34.47;;;15.50;;
16506;SDS011;8366;51.020;7.642;2023-03-04T00:35:33;30.47;;;13.60;;
16506;SDS011;8366;51.020;7.642;2023-03-04T00:38:00;33.37;;;15.23;;
16506;SDS011;8366;51.020;7.642;2023-03-04T00:40:26;29.63;;;14.77;;
16506;SDS011;8366;51.020;7.642;2023-03-04T00:42:53;32.10;;;15.43;;
16506;SDS011;8366;51.020;7.642;2023-03-04T00:45:19;29.33;;;14.37;;
16506;SDS011;8366;51.020;7.642;2023-03-04T00:47:46;34.60;;;15.30;;
16506;SDS011;8366;51.020;7.642;2023-03-04T00:50:16;32.50;;;14.93;;
16506;SDS011;8366;51.020;7.642;2023-03-04T00:52:44;34.10;;;15.53;;
16506;SDS011;8366;51.020;7.642;2023-03-04T00:55:16;35.23;;;16.30;;
16506;SDS011;8366;51.020;7.642;2023-03-04T00:57:43;28.47;;;14.60;;
16506;SDS011;8366;51.020;7.642;2023-03-04T01:00:10;34.60;;;15.50;;
16506;SDS011;8366;51.020;7.642;2023-03-04T01:02:37;29.67;;;14.33;;
16506;SDS011;8366;51.020;7.642;2023-03-04T01:05:04;32.87;;;15.57;;
16506;SDS011;8366;51.020;7.642;2023-03-04T01:07:32;37.27;;;15.60;;
16506;SDS011;8366;51.020;7.642;2023-03-04T01:10:00;33.73;;;14.97;;
16506;SDS011;8366;51.020;7.642;2023-03-04T01:12:26;32.47;;;15.50;;
16506;SDS011;8366;51.020;7.642;2023-03-04T01:14:54;32.80;;;15.53;;
16506;SDS011;8366;51.020;7.642;2023-03-04T01:17:21;32.47;;;15.13;;
16506;SDS011;8366;51.020;7.642;2023-03-04T01:19:47;35.63;;;15.23;;
16506;SDS011;8366;51.020;7.642;2023-03-04T01:22:14;33.53;;;15.63;;
16506;SDS011;8366;51.020;7.642;2023-03-04T01:24:43;32.83;;;14.43;;
16506;SDS011;8366;51.020;7.642;2023-03-04T01:27:11;34.13;;;15.33;;
16506;SDS011;8366;51.020;7.642;2023-03-04T01:29:37;32.23;;;15.20;;
16506;SDS011;8366;51.020;7.642;2023-03-04T01:32:04;32.53;;;15.77;;
16506;SDS011;8366;51.020;7.642;2023-03-04T01:34:30;32.07;;;14.57;;
16506;SDS011;8366;51.020;7.642;2023-03-04T01:36:57;31.80;;;14.27;;
16506;SDS011;8366;51.020;7.642;2023-03-04T01:39:23;29.93;;;14.73;;
16506;SDS011;8366;51.020;7.642;2023-03-04T01:41:50;30.10;;;14.33;;
16506;SDS011;8366;51.020;7.642;2023-03-04T01:44:18;32.97;;;14.90;;
16506;SDS011;8366;51.020;7.642;2023-03-04T01:46:46;33.27;;;15.30;;
16506;SDS011;8366;51.020;7.642;2023-03-04T01:49:14;36.63;;;14.90;;
16506;SDS011;8366;51.020;7.642;2023-03-04T01:51:41;34.03;;;15.70;;
16506;SDS011;8366;51.020;7.642;2023-03-04T01:54:08;33.40;;;15.63;;
16506;SDS011;8366;51.020;7.642;2023-03-04T01:56:35;33.67;;;15.57;;
16506;SDS011;8366;51.020;7.642;2023-03-04T01:59:07;32.73;;;15.07;;
16506;SDS011;8366;51.020;7.642;2023-03-04T02:01:39;33.10;;;14.83;;
16506;SDS011;8366;51.020;7.642;2023-03-04T02:04:07;32.17;;;14.87;;
16506;SDS011;8366;51.020;7.642;2023-03-04T02:06:34;35.10;;;15.70;;
16506;SDS011;8366;51.020;7.642;2023-03-04T02:09:01;30.43;;;14.60;;
16506;SDS011;8366;51.020;7.642;2023-03-04T02:11:29;30.90;;;14.47;;
16506;SDS011;8366;51.020;7.642;2023-03-04T02:13:56;30.47;;;14.77;;
16506;SDS011;8366;51.020;7.642;2023-03-04T02:16:22;35.63;;;15.47;;
16506;SDS011;8366;51.020;7.642;2023-03-04T02:18:50;37.07;;;15.77;;
16506;SDS011;8366;51.020;7.642;2023-03-04T02:21:18;31.30;;;15.27;;
16506;SDS011;8366;51.020;7.642;2023-03-04T02:23:51;33.37;;;16.43;;
16506;SDS011;8366;51.020;7.642;2023-03-04T02:26:26;32.90;;;14.77;;
16506;SDS011;8366;51.020;7.642;2023-03-04T02:28:53;33.63;;;15.50;;
16506;SDS011;8366;51.020;7.642;2023-03-04T02:31:23;33.07;;;15.43;;
16506;SDS011;8366;51.020;7.642;2023-03-04T02:33:51;32.83;;;15.30;;
16506;SDS011;8366;51.020;7.642;2023-03-04T02:36:18;32.03;;;15.10;;
16506;SDS011;8366;51.020;7.642;2023-03-04T02:38:45;32.17;;;15.60;;
16506;SDS011;8366;51.020;7.642;2023-03-04T02:41:11;33.50;;;15.90;;
16506;SDS011;8366;51.020;7.642;2023-03-04T02:43:40;31.30;;;14.93;;
16506;SDS011;8366;51.020;7.642;2023-03-04T02:46:07;30.00;;;14.47;;
16506;SDS011;8366;51.020;7.642;2023-03-04T02:48:36;36.50;;;15.63;;
16506;SDS011;8366;51.020;7.642;2023-03-04T02:51:02;32.50;;;15.00;;
16506;SDS011;8366;51.020;7.642;2023-03-04T02:53:29;30.47;;;15.47;;
16506;SDS011;8366;51.020;7.642;2023-03-04T02:55:56;32.33;;;15.20;;
16506;SDS011;8366;51.020;7.642;2023-03-04T02:58:22;33.30;;;15.63;;
16506;SDS011;8366;51.020;7.642;2023-03-04T03:00:50;32.27;;;15.23;;
16506;SDS011;8366;51.020;7.642;2023-03-04T03:03:17;33.30;;;15.33;;
16506;SDS011;8366;51.020;7.642;2023-03-04T03:05:43;33.10;;;16.23;;
16506;SDS011;8366;51.020;7.642;2023-03-04T03:08:10;33.70;;;14.93;;
16506;SDS011;8366;51.020;7.642;2023-03-04T03:10:36;35.30;;;16.07;;
16506;SDS011;8366;51.020;7.642;2023-03-04T03:13:03;35.77;;;15.63;;
16506;SDS011;8366;51.020;7.642;2023-03-04T03:15:29;33.20;;;14.60;;
16506;SDS011;8366;51.020;7.642;2023-03-04T03:17:57;31.43;;;15.70;;
16506;SDS011;8366;51.020;7.642;2023-03-04T03:20:24;37.70;;;16.73;;
16506;SDS011;8366;51.020;7.642;2023-03-04T03:22:51;32.03;;;15.50;;
16506;SDS011;8366;51.020;7.642;2023-03-04T03:25:17;34.30;;;15.23;;
16506;SDS011;8366;51.020;7.642;2023-03-04T03:27:44;30.47;;;15.77;;
16506;SDS011;8366;51.020;7.642;2023-03-04T03:30:11;33.27;;;15.40;;
16506;SDS011;8366;51.020;7.642;2023-03-04T03:32:39;42.50;;;15.53;;
16506;SDS011;8366;51.020;7.642;2023-03-04T03:35:07;37.33;;;15.03;;
16506;SDS011;8366;51.020;7.642;2023-03-04T03:37:34;34.73;;;15.47;;
16506;SDS011;8366;51.020;7.642;2023-03-04T03:40:01;36.23;;;16.20;;
16506;SDS011;8366;51.020;7.642;2023-03-04T03:42:27;37.97;;;16.37;;
16506;SDS011;8366;51.020;7.642;2023-03-04T03:44:54;34.63;;;15.47;;
16506;SDS011;8366;51.020;7.642;2023-03-04T03:47:21;38.00;;;15.37;;
16506;SDS011;8366;51.020;7.642;2023-03-04T03:49:47;35.13;;;16.10;;
16506;SDS011;8366;51.020;7.642;2023-03-04T03:52:15;38.80;;;15.33;;
16506;SDS011;8366;51.020;7.642;2023-03-04T03:54:42;34.27;;;15.27;;
16506;SDS011;8366;51.020;7.642;2023-03-04T03:57:08;35.80;;;15.57;;
16506;SDS011;8366;51.020;7.642;2023-03-04T03:59:35;32.87;;;15.10;;
16506;SDS011;8366;51.020;7.642;2023-03-04T04:02:01;36.93;;;15.97;;
16506;SDS011;8366;51.020;7.642;2023-03-04T04:04:28;35.67;;;15.70;;
16506;SDS011;8366;51.020;7.642;2023-03-04T04:06:54;35.07;;;15.27;;
16506;SDS011;8366;51.020;7.642;2023-03-04T04:09:22;34.27;;;14.43;;
16506;SDS011;8366;51.020;7.642;2023-03-04T04:11:48;29.83;;;15.00;;
16506;SDS011;8366;51.020;7.642;2023-03-04T04:14:15;25.53;;;11.70;;
16506;SDS011;8366;51.020;7.642;2023-03-04T04:16:41;28.93;;;11.03;;
16506;SDS011;8366;51.020;7.642;2023-03-04T04:19:09;18.50;;;7.20;;
16506;SDS011;8366;51.020;7.642;2023-03-04T04:21:39;15.73;;;6.97;;
16506;SDS011;8366;51.020;7.642;2023-03-04T04:24:06;15.77;;;6.17;;
16506;SDS011;8366;51.020;7.642;2023-03-04T04:26:34;15.10;;;5.90;;
16506;SDS011;8366;51.020;7.642;2023-03-04T04:29:00;21.70;;;6.20;;
16506;SDS011;8366;51.020;7.642;2023-03-04T04:31:27;20.17;;;6.00;;
16506;SDS011;8366;51.020;7.642;2023-03-04T04:33:54;20.47;;;5.63;;
16506;SDS011;8366;51.020;7.642;2023-03-04T04:36:20;16.43;;;5.77;;
16506;SDS011;8366;51.020;7.642;2023-03-04T04:38:46;15.63;;;4.80;;
16506;SDS011;8366;51.020;7.642;2023-03-04T04:41:16;17.90;;;5.70;;
16506;SDS011;8366;51.020;7.642;2023-03-04T04:43:46;14.43;;;5.33;;
16506;SDS011;8366;51.020;7.642;2023-03-04T04:46:13;20.27;;;5.43;;
16506;SDS011;8366;51.020;7.642;2023-03-04T04:48:39;16.77;;;5.03;;
16506;SDS011;8366;51.020;7.642;2023-03-04T04:51:06;13.23;;;5.43;;
16506;SDS011;8366;51.020;7.642;2023-03-04T04:53:33;15.73;;;5.53;;
16506;SDS011;8366;51.020;7.642;2023-03-04T04:56:00;17.73;;;5.80;;
16506;SDS011;8366;51.020;7.642;2023-03-04T04:58:34;15.63;;;5.67;;
16506;SDS011;8366;51.020;7.642;2023-03-04T05:01:03;13.73;;;5.40;;
16506;SDS011;8366;51.020;7.642;2023-03-04T05:03:29;16.87;;;5.50;;
16506;SDS011;8366;51.020;7.642;2023-03-04T05:05:56;13.90;;;5.37;;
16506;SDS011;8366;51.020;7.642;2023-03-04T05:08:23;11.57;;;4.60;;
16506;SDS011;8366;51.020;7.642;2023-03-04T05:10:49;14.47;;;4.87;;
16506;SDS011;8366;51.020;7.642;2023-03-04T05:13:16;10.73;;;4.43;;
16506;SDS011;8366;51.020;7.642;2023-03-04T05:15:43;17.20;;;4.70;;
16506;SDS011;8366;51.020;7.642;2023-03-04T05:18:11;12.93;;;4.27;;
16506;SDS011;8366;51.020;7.642;2023-03-04T05:20:38;14.00;;;4.67;;
16506;SDS011;8366;51.020;7.642;2023-03-04T05:23:04;12.13;;;4.97;;
16506;SDS011;8366;51.020;7.642;2023-03-04T05:25:31;13.90;;;4.20;;
16506;SDS011;8366;51.020;7.642;2023-03-04T05:27:57;14.97;;;4.60;;
16506;SDS011;8366;51.020;7.642;2023-03-04T05:30:26;15.73;;;5.03;;
16506;SDS011;8366;51.020;7.642;2023-03-04T05:32:52;16.50;;;4.60;;
16506;SDS011;8366;51.020;7.642;2023-03-04T05:35:20;15.60;;;4.57;;
16506;SDS011;8366;51.020;7.642;2023-03-04T05:37:47;18.13;;;4.70;;
16506;SDS011;8366;51.020;7.642;2023-03-04T05:40:13;15.43;;;5.17;;
16506;SDS011;8366;51.020;7.642;2023-03-04T05:42:40;10.67;;;4.50;;
16506;SDS011;8366;51.020;7.642;2023-03-04T05:45:07;10.07;;;4.17;;
16506;SDS011;8366;51.020;7.642;2023-03-04T05:47:34;15.37;;;4.67;;
16506;SDS011;8366;51.020;7.642;2023-03-04T05:50:00;16.63;;;4.30;;
16506;SDS011;8366;51.020;7.642;2023-03-04T05:52:28;12.23;;;4.57;;
16506;SDS011;8366;51.020;7.642;2023-03-04T05:54:55;15.53;;;4.40;;
16506;SDS011;8366;51.020;7.642;2023-03-04T05:57:22;10.93;;;4.30;;
16506;SDS011;8366;51.020;7.642;2023-03-04T05:59:48;13.87;;;4.07;;
16506;SDS011;8366;51.020;7.642;2023-03-04T06:02:14;12.20;;;4.13;;
16506;SDS011;8366;51.020;7.642;2023-03-04T06:04:41;13.57;;;4.53;;
16506;SDS011;8366;51.020;7.642;2023-03-04T06:07:07;18.23;;;4.60;;
16506;SDS011;8366;51.020;7.642;2023-03-04T06:09:35;11.90;;;4.53;;
16506;SDS011;8366;51.020;7.642;2023-03-04T06:12:02;12.37;;;4.23;;
16506;SDS011;8366;51.020;7.642;2023-03-04T06:14:29;9.90;;;3.97;;
16506;SDS011;8366;51.020;7.642;2023-03-04T06:16:55;15.27;;;4.13;;
16506;SDS011;8366;51.020;7.642;2023-03-04T06:19:22;12.73;;;4.60;;
16506;SDS011;8366;51.020;7.642;2023-03-04T06:21:48;16.40;;;5.03;;
16506;SDS011;8366;51.020;7.642;2023-03-04T06:24:15;15.27;;;5.50;;
16506;SDS011;8366;51.020;7.642;2023-03-04T06:26:43;19.73;;;5.67;;
16506;SDS011;8366;51.020;7.642;2023-03-04T06:29:09;11.83;;;5.00;;
16506;SDS011;8366;51.020;7.642;2023-03-04T06:31:36;14.07;;;5.30;;
16506;SDS011;8366;51.020;7.642;2023-03-04T06:34:03;14.67;;;5.43;;
16506;SDS011;8366;51.020;7.642;2023-03-04T06:36:30;13.13;;;4.87;;
16506;SDS011;8366;51.020;7.642;2023-03-04T06:38:56;14.33;;;5.07;;
16506;SDS011;8366;51.020;7.642;2023-03-04T06:41:23;12.80;;;4.67;;
16506;SDS011;8366;51.020;7.642;2023-03-04T06:43:53;11.17;;;4.87;;
16506;SDS011;8366;51.020;7.642;2023-03-04T06:46:19;14.83;;;5.07;;
16506;SDS011;8366;51.020;7.642;2023-03-04T06:48:46;13.10;;;4.93;;
16506;SDS011;8366;51.020;7.642;2023-03-04T06:51:13;13.43;;;5.80;;
16506;SDS011;8366;51.020;7.642;2023-03-04T06:53:40;13.23;;;4.70;;
16506;SDS011;8366;51.020;7.642;2023-03-04T06:56:07;14.53;;;4.90;;
16506;SDS011;8366;51.020;7.642;2023-03-04T06:58:35;15.83;;;4.67;;
16506;SDS011;8366;51.020;7.642;2023-03-04T07:01:13;14.67;;;4.87;;
16506;SDS011;8366;51.020;7.642;2023-03-04T07:03:40;17.43;;;4.70;;
16506;SDS011;8366;51.020;7.642;2023-03-04T07:06:08;13.60;;;4.80;;
16506;SDS011;8366;51.020;7.642;2023-03-04T07:08:35;11.87;;;4.73;;
16506;SDS011;8366;51.020;7.642;2023-03-04T07:11:01;15.00;;;4.70;;
16506;SDS011;8366;51.020;7.642;2023-03-04T07:13:29;11.60;;;4.53;;
16506;SDS011;8366;51.020;7.642;2023-03-04T07:15:55;9.37;;;4.30;;
16506;SDS011;8366;51.020;7.642;2023-03-04T07:18:23;13.13;;;4.93;;
16506;SDS011;8366;51.020;7.642;2023-03-04T07:20:50;9.87;;;4.00;;
16506;SDS011;8366;51.020;7.642;2023-03-04T07:23:17;12.43;;;4.20;;
16506;SDS011;8366;51.020;7.642;2023-03-04T07:25:43;10.23;;;3.30;;
16506;SDS011;8366;51.020;7.642;2023-03-04T07:28:10;13.13;;;4.20;;
16506;SDS011;8366;51.020;7.642;2023-03-04T07:30:36;12.17;;;4.20;;
16506;SDS011;8366;51.020;7.642;2023-03-04T07:33:04;10.57;;;4.33;;
16506;SDS011;8366;51.020;7.642;2023-03-04T07:35:32;13.00;;;4.50;;
16506;SDS011;8366;51.020;7.642;2023-03-04T07:38:01;13.60;;;4.50;;
16506;SDS011;8366;51.020;7.642;2023-03-04T07:40:28;11.17;;;4.63;;
16506;SDS011;8366;51.020;7.642;2023-03-04T07:42:55;11.60;;;4.73;;
16506;SDS011;8366;51.020;7.642;2023-03-04T07:45:22;13.13;;;4.50;;
16506;SDS011;8366;51.020;7.642;2023-03-04T07:47:49;11.87;;;4.83;;
16506;SDS011;8366;51.020;7.642;2023-03-04T07:50:16;13.63;;;5.00;;
16506;SDS011;8366;51.020;7.642;2023-03-04T07:52:45;9.97;;;4.60;;
16506;SDS011;8366;51.020;7.642;2023-03-04T07:55:15;16.07;;;6.77;;
16506;SDS011;8366;51.020;7.642;2023-03-04T07:57:42;9.80;;;4.17;;
16506;SDS011;8366;51.020;7.642;2023-03-04T08:00:10;12.23;;;4.43;;
16506;SDS011;8366;51.020;7.642;2023-03-04T08:02:38;10.57;;;3.57;;
16506;SDS011;8366;51.020;7.642;2023-03-04T08:05:04;12.13;;;3.27;;
16506;SDS011;8366;51.020;7.642;2023-03-04T08:07:31;10.03;;;3.80;;
16506;SDS011;8366;51.020;7.642;2023-03-04T08:10:00;6.90;;;3.40;;
16506;SDS011;8366;51.020;7.642;2023-03-04T08:12:26;12.03;;;3.27;;
16506;SDS011;8366;51.020;7.642;2023-03-04T08:14:53;9.37;;;3.57;;
16506;SDS011;8366;51.020;7.642;2023-03-04T08:17:20;8.33;;;3.33;;
16506;SDS011;8366;51.020;7.642;2023-03-04T08:19:46;7.93;;;2.87;;
16506;SDS011;8366;51.020;7.642;2023-03-04T08:22:13;8.13;;;3.10;;
16506;SDS011;8366;51.020;7.642;2023-03-04T08:24:39;9.20;;;3.33;;
16506;SDS011;8366;51.020;7.642;2023-03-04T08:27:07;10.63;;;3.23;;
16506;SDS011;8366;51.020;7.642;2023-03-04T08:29:34;10.87;;;3.73;;
16506;SDS011;8366;51.020;7.642;2023-03-04T08:32:01;11.73;;;3.53;;
16506;SDS011;8366;51.020;7.642;2023-03-04T08:34:27;10.90;;;3.67;;
16506;SDS011;8366;51.020;7.642;2023-03-04T08:36:54;8.03;;;2.90;;
16506;SDS011;8366;51.020;7.642;2023-03-04T08:39:21;9.33;;;2.97;;
16506;SDS011;8366;51.020;7.642;2023-03-04T08:41:47;12.57;;;4.93;;
16506;SDS011;8366;51.020;7.642;2023-03-04T08:44:15;7.40;;;3.57;;
16506;SDS011;8366;51.020;7.642;2023-03-04T08:46:42;11.07;;;3.53;;
16506;SDS011;8366;51.020;7.642;2023-03-04T08:49:09;8.50;;;3.20;;
16506;SDS011;8366;51.020;7.642;2023-03-04T08:51:36;8.60;;;4.03;;
16506;SDS011;8366;51.020;7.642;2023-03-04T08:54:03;13.40;;;5.37;;
16506;SDS011;8366;51.020;7.642;2023-03-04T08:56:30;7.53;;;4.33;;
16506;SDS011;8366;51.020;7.642;2023-03-04T08:58:57;14.50;;;5.60;;
16506;SDS011;8366;51.020;7.642;2023-03-04T09:01:25;5.00;;;2.40;;
16506;SDS011;8366;51.020;7.642;2023-03-04T09:03:52;7.90;;;3.10;;
16506;SDS011;8366;51.020;7.642;2023-03-04T09:06:20;6.03;;;2.53;;
16506;SDS011;8366;51.020;7.642;2023-03-04T09:08:47;8.87;;;3.00;;
16506;SDS011;8366;51.020;7.642;2023-03-04T09:11:13;7.33;;;2.70;;
16506;SDS011;8366;51.020;7.642;2023-03-04T09:13:40;6.73;;;2.43;;
16506;SDS011;8366;51.020;7.642;2023-03-04T09:16:08;9.50;;;2.90;;
16506;SDS011;8366;51.020;7.642;2023-03-04T09:18:36;7.37;;;2.90;;
16506;SDS011;8366;51.020;7.642;2023-03-04T09:21:03;7.43;;;3.20;;
16506;SDS011;8366;51.020;7.642;2023-03-04T09:23:30;6.63;;;3.23;;
16506;SDS011;8366;51.020;7.642;2023-03-04T09:25:57;4.83;;;2.30;;
16506;SDS011;8366;51.020;7.642;2023-03-04T09:28:23;6.30;;;2.20;;
16506;SDS011;8366;51.020;7.642;2023-03-04T09:30:50;6.43;;;2.60;;
16506;SDS011;8366;51.020;7.642;2023-03-04T09:33:16;7.53;;;2.33;;
16506;SDS011;8366;51.020;7.642;2023-03-04T09:35:45;5.97;;;2.30;;
16506;SDS011;8366;51.020;7.642;2023-03-04T09:38:12;6.83;;;2.00;;
16506;SDS011;8366;51.020;7.642;2023-03-04T09:40:40;6.33;;;2.50;;
16506;SDS011;8366;51.020;7.642;2023-03-04T09:43:10;5.40;;;2.43;;
16506;SDS011;8366;51.020;7.642;2023-03-04T09:45:41;6.20;;;2.70;;
16506;SDS011;8366;51.020;7.642;2023-03-04T09:48:09;5.40;;;2.13;;
16506;SDS011;8366;51.020;7.642;2023-03-04T09:50:43;3.90;;;2.30;;
16506;SDS011;8366;51.020;7.642;2023-03-04T09:53:18;4.93;;;2.30;;
16506;SDS011;8366;51.020;7.642;2023-03-04T09:55:48;5.33;;;2.50;;
16506;SDS011;8366;51.020;7.642;2023-03-04T09:58:19;4.53;;;2.30;;
16506;SDS011;8366;51.020;7.642;2023-03-04T10:00:54;8.57;;;2.73;;
16506;SDS011;8366;51.020;7.642;2023-03-04T10:03:22;7.57;;;2.57;;
16506;SDS011;8366;51.020;7.642;2023-03-04T10:05:53;7.67;;;2.30;;
16506;SDS011;8366;51.020;7.642;2023-03-04T10:08:32;4.53;;;2.00;;
16506;SDS011;8366;51.020;7.642;2023-03-04T10:11:02;5.27;;;2.47;;
16506;SDS011;8366;51.020;7.642;2023-03-04T10:13:34;5.83;;;2.30;;
16506;SDS011;8366;51.020;7.642;2023-03-04T10:16:03;4.80;;;2.17;;
16506;SDS011;8366;51.020;7.642;2023-03-04T10:18:33;5.80;;;2.30;;
16506;SDS011;8366;51.020;7.642;2023-03-04T10:21:05;3.90;;;2.07;;
16506;SDS011;8366;51.020;7.642;2023-03-04T10:23:39;6.03;;;2.50;;
16506;SDS011;8366;51.020;7.642;2023-03-04T10:26:09;4.40;;;2.50;;
16506;SDS011;8366;51.020;7.642;2023-03-04T10:28:38;8.33;;;3.30;;
16506;SDS011;8366;51.020;7.642;2023-03-04T10:31:05;5.83;;;2.80;;
16506;SDS011;8366;51.020;7.642;2023-03-04T10:33:37;32.70;;;14.80;;
16506;SDS011;8366;51.020;7.642;2023-03-04T10:39:01;8.30;;;2.97;;
16506;SDS011;8366;51.020;7.642;2023-03-04T10:41:29;6.87;;;2.97;;
16506;SDS011;8366;51.020;7.642;2023-03-04T10:43:59;5.03;;;2.33;;
16506;SDS011;8366;51.020;7.642;2023-03-04T10:46:28;2.17;;;1.80;;
16506;SDS011;8366;51.020;7.642;2023-03-04T10:48:55;4.60;;;2.80;;
16506;SDS011;8366;51.020;7.642;2023-03-04T10:51:22;4.27;;;2.37;;
16506;SDS011;8366;51.020;7.642;2023-03-04T10:53:51;34.43;;;4.47;;
16506;SDS011;8366;51.020;7.642;2023-03-04T10:56:33;7.90;;;3.50;;
16506;SDS011;8366;51.020;7.642;2023-03-04T11:01:58;19.17;;;3.57;;
16506;SDS011;8366;51.020;7.642;2023-03-04T11:04:25;5.20;;;2.43;;
16506;SDS011;8366;51.020;7.642;2023-03-04T11:06:53;5.17;;;2.67;;
16506;SDS011;8366;51.020;7.642;2023-03-04T11:09:22;5.40;;;3.10;;
16506;SDS011;8366;51.020;7.642;2023-03-04T11:11:49;8.00;;;2.80;;
16506;SDS011;8366;51.020;7.642;2023-03-04T11:14:20;5.90;;;3.10;;
16506;SDS011;8366;51.020;7.642;2023-03-04T11:16:52;7.60;;;2.93;;
16506;SDS011;8366;51.020;7.642;2023-03-04T11:19:20;4.50;;;2.30;;
16506;SDS011;8366;51.020;7.642;2023-03-04T11:21:49;5.90;;;3.27;;
16506;SDS011;8366;51.020;7.642;2023-03-04T11:24:18;4.90;;;2.93;;
16506;SDS011;8366;51.020;7.642;2023-03-04T11:26:51;6.17;;;3.43;;
16506;SDS011;8366;51.020;7.642;2023-03-04T11:29:21;2.80;;;2.00;;
16506;SDS011;8366;51.020;7.642;2023-03-04T11:31:50;4.53;;;2.57;;
16506;SDS011;8366;51.020;7.642;2023-03-04T11:34:23;7.03;;;2.80;;
16506;SDS011;8366;51.020;7.642;2023-03-04T11:36:58;5.27;;;2.70;;
16506;SDS011;8366;51.020;7.642;2023-03-04T11:39:30;4.27;;;2.50;;
16506;SDS011;8366;51.020;7.642;2023-03-04T11:42:00;3.63;;;2.50;;
16506;SDS011;8366;51.020;7.642;2023-03-04T11:44:30;4.97;;;2.40;;
16506;SDS011;8366;51.020;7.642;2023-03-04T11:47:00;4.43;;;2.30;;
16506;SDS011;8366;51.020;7.642;2023-03-04T11:49:51;5.07;;;2.20;;
16506;SDS011;8366;51.020;7.642;2023-03-04T11:52:43;3.17;;;2.27;;
16506;SDS011;8366;51.020;7.642;2023-03-04T11:55:32;4.63;;;2.40;;
16506;SDS011;8366;51.020;7.642;2023-03-04T11:58:08;4.70;;;2.50;;
16506;SDS011;8366;51.020;7.642;2023-03-04T12:00:56;5.43;;;2.50;;
16506;SDS011;8366;51.020;7.642;2023-03-04T12:06:24;4.20;;;1.97;;
16506;SDS011;8366;51.020;7.642;2023-03-04T12:08:59;3.60;;;1.93;;
16506;SDS011;8366;51.020;7.642;2023-03-04T12:11:38;4.23;;;1.77;;
16506;SDS011;8366;51.020;7.642;2023-03-04T12:14:10;3.10;;;1.80;;
16506;SDS011;8366;51.020;7.642;2023-03-04T12:19:47;2.63;;;2.33;;
16506;SDS011;8366;51.020;7.642;2023-03-04T12:22:26;3.83;;;2.40;;
16506;SDS011;8366;51.020;7.642;2023-03-04T12:25:02;4.50;;;2.60;;
16506;SDS011;8366;51.020;7.642;2023-03-04T12:27:56;4.93;;;2.90;;
16506;SDS011;8366;51.020;7.642;2023-03-04T12:30:34;4.70;;;2.60;;
16506;SDS011;8366;51.020;7.642;2023-03-04T12:33:09;4.30;;;2.63;;
16506;SDS011;8366;51.020;7.642;2023-03-04T12:35:40;3.07;;;2.50;;
16506;SDS011;8366;51.020;7.642;2023-03-04T12:38:23;5.63;;;2.60;;
16506;SDS011;8366;51.020;7.642;2023-03-04T12:40:57;5.23;;;2.73;;
16506;SDS011;8366;51.020;7.642;2023-03-04T12:43:34;4.87;;;3.00;;
16506;SDS011;8366;51.020;7.642;2023-03-04T12:46:09;9.20;;;4.07;;
16506;SDS011;8366;51.020;7.642;2023-03-04T12:48:40;5.23;;;3.77;;
16506;SDS011;8366;51.020;7.642;2023-03-04T12:51:16;8.30;;;4.87;;
16506;SDS011;8366;51.020;7.642;2023-03-04T12:53:53;12.93;;;7.10;;
16506;SDS011;8366;51.020;7.642;2023-03-04T12:56:29;12.53;;;7.37;;
16506;SDS011;8366;51.020;7.642;2023-03-04T12:58:59;14.27;;;8.60;;
16506;SDS011;8366;51.020;7.642;2023-03-04T13:01:26;19.20;;;11.07;;
16506;SDS011;8366;51.020;7.642;2023-03-04T13:03:56;14.33;;;7.77;;
16506;SDS011;8366;51.020;7.642;2023-03-04T13:06:33;17.47;;;9.20;;
16506;SDS011;8366;51.020;7.642;2023-03-04T13:09:05;16.37;;;8.50;;
16506;SDS011;8366;51.020;7.642;2023-03-04T13:11:40;17.30;;;9.83;;
16506;SDS011;8366;51.020;7.642;2023-03-04T13:14:30;17.93;;;10.03;;
16506;SDS011;8366;51.020;7.642;2023-03-04T13:16:58;19.13;;;10.23;;
16506;SDS011;8366;51.020;7.642;2023-03-04T13:19:48;17.70;;;10.27;;
16506;SDS011;8366;51.020;7.642;2023-03-04T13:22:26;16.37;;;9.40;;
16506;SDS011;8366;51.020;7.642;2023-03-04T13:24:55;18.20;;;12.17;;
16506;SDS011;8366;51.020;7.642;2023-03-04T13:36:06;13.03;;;8.60;;
16506;SDS011;8366;51.020;7.642;2023-03-04T13:38:56;17.67;;;9.20;;
16506;SDS011;8366;51.020;7.642;2023-03-04T13:41:27;14.20;;;8.10;;
16506;SDS011;8366;51.020;7.642;2023-03-04T13:43:56;13.17;;;8.37;;
16506;SDS011;8366;51.020;7.642;2023-03-04T13:49:19;12.30;;;7.33;;
16506;SDS011;8366;51.020;7.642;2023-03-04T13:51:47;13.60;;;8.07;;
16506;SDS011;8366;51.020;7.642;2023-03-04T13:54:15;14.50;;;8.67;;
16506;SDS011;8366;51.020;7.642;2023-03-04T13:56:43;12.07;;;7.97;;
16506;SDS011;8366;51.020;7.642;2023-03-04T13:59:23;14.90;;;8.53;;
16506;SDS011;8366;51.020;7.642;2023-03-04T14:01:57;13.80;;;8.00;;
16506;SDS011;8366;51.020;7.642;2023-03-04T14:04:27;13.07;;;7.90;;
16506;SDS011;8366;51.020;7.642;2023-03-04T14:06:56;13.17;;;8.40;;
16506;SDS011;8366;51.020;7.642;2023-03-04T14:09:24;14.80;;;8.80;;
16506;SDS011;8366;51.020;7.642;2023-03-04T14:11:52;14.40;;;8.83;;
16506;SDS011;8366;51.020;7.642;2023-03-04T14:14:21;16.13;;;9.57;;
16506;SDS011;8366;51.020;7.642;2023-03-04T14:16:50;17.17;;;10.40;;
16506;SDS011;8366;51.020;7.642;2023-03-04T14:19:20;16.17;;;10.03;;
16506;SDS011;8366;51.020;7.642;2023-03-04T14:21:51;16.07;;;9.90;;
16506;SDS011;8366;51.020;7.642;2023-03-04T14:24:18;17.80;;;10.70;;
16506;SDS011;8366;51.020;7.642;2023-03-04T14:26:46;20.13;;;11.60;;
16506;SDS011;8366;51.020;7.642;2023-03-04T14:29:23;17.87;;;10.70;;
16506;SDS011;8366;51.020;7.642;2023-03-04T14:31:51;15.77;;;10.70;;
16506;SDS011;8366;51.020;7.642;2023-03-04T14:34:22;17.40;;;10.50;;
16506;SDS011;8366;51.020;7.642;2023-03-04T14:36:50;20.50;;;10.63;;
16506;SDS011;8366;51.020;7.642;2023-03-04T14:39:17;15.23;;;10.17;;
16506;SDS011;8366;51.020;7.642;2023-03-04T14:41:44;16.77;;;10.83;;
16506;SDS011;8366;51.020;7.642;2023-03-04T14:44:13;21.30;;;11.63;;
16506;SDS011;8366;51.020;7.642;2023-03-04T14:46:46;16.33;;;10.53;;
16506;SDS011;8366;51.020;7.642;2023-03-04T14:49:14;20.13;;;12.00;;
16506;SDS011;8366;51.020;7.642;2023-03-04T14:51:46;20.53;;;12.50;;
16506;SDS011;8366;51.020;7.642;2023-03-04T14:54:24;20.27;;;13.10;;
16506;SDS011;8366;51.020;7.642;2023-03-04T14:56:53;19.53;;;12.03;;
16506;SDS011;8366;51.020;7.642;2023-03-04T14:59:26;20.17;;;12.77;;
16506;SDS011;8366;51.020;7.642;2023-03-04T15:01:56;20.40;;;13.27;;
16506;SDS011;8366;51.020;7.642;2023-03-04T15:04:34;21.97;;;12.97;;
16506;SDS011;8366;51.020;7.642;2023-03-04T15:07:03;20.77;;;13.33;;
16506;SDS011;8366;51.020;7.642;2023-03-04T15:09:31;21.20;;;12.73;;
16506;SDS011;8366;51.020;7.642;2023-03-04T15:12:01;21.00;;;12.20;;
16506;SDS011;8366;51.020;7.642;2023-03-04T15:14:42;24.97;;;13.50;;
16506;SDS011;8366;51.020;7.642;2023-03-04T15:17:21;21.53;;;12.93;;
16506;SDS011;8366;51.020;7.642;2023-03-04T15:19:56;21.90;;;13.53;;